Time;durP1;ratioP1;P1;durP2;ratioP2;P2;SDS_P1;SDS_P2;PMS_P1;PMS_P2;Temp;Humidity;BMP_temperature;BMP_pressure;BME280_temperature;BME280_humidity;BME280_pressure;Samples;Min_cycle;Max_cycle;Signal;HPM_P1;HPM_P2
2021/04/03 00:02:12;;;;;;;14.45;5.05;;;6.40;75.90;;;;;;5114193;28;20100;-38
2021/04/03 00:04:38;;;;;;;22.52;4.90;;;6.50;76.20;;;;;;5113974;28;20020;-36
2021/04/03 00:07:04;;;;;;;16.88;4.88;;;6.50;76.20;;;;;;5112562;28;20024;-37
2021/04/03 00:09:30;;;;;;;18.77;5.45;;;6.40;76.40;;;;;;5113695;28;20031;-37
2021/04/03 00:11:56;;;;;;;22.67;5.38;;;6.40;76.90;;;;;;5113723;28;20019;-37
2021/04/03 00:14:21;;;;;;;11.38;5.13;;;6.40;76.70;;;;;;5113860;28;20344;-37
2021/04/03 00:16:47;;;;;;;11.77;4.75;;;6.40;77.10;;;;;;5113643;28;20019;-37
2021/04/03 00:19:13;;;;;;;27.23;5.50;;;6.30;76.80;;;;;;5113608;28;20016;-37
2021/04/03 00:21:38;;;;;;;20.00;5.30;;;6.40;76.20;;;;;;5114102;28;20020;-37
2021/04/03 00:24:04;;;;;;;13.13;4.60;;;6.40;75.60;;;;;;5113513;28;20028;-37
2021/04/03 00:26:30;;;;;;;15.30;3.92;;;6.40;76.00;;;;;;5113997;28;20032;-37
2021/04/03 00:28:56;;;;;;;15.60;4.70;;;6.30;75.60;;;;;;5113695;28;20024;-42
2021/04/03 00:31:23;;;;;;;13.30;3.78;;;6.10;75.90;;;;;;5113440;28;20440;-36
2021/04/03 00:33:48;;;;;;;13.02;3.30;;;6.00;74.90;;;;;;5113533;28;20032;-36
2021/04/03 00:36:14;;;;;;;8.13;2.58;;;5.80;73.10;;;;;;5114381;28;20061;-37
2021/04/03 00:38:40;;;;;;;12.88;3.13;;;5.70;73.40;;;;;;5117808;28;20043;-38
2021/04/03 00:41:05;;;;;;;13.43;4.65;;;5.80;73.50;;;;;;5117836;28;20027;-36
2021/04/03 00:43:31;;;;;;;11.52;3.40;;;6.00;73.10;;;;;;5117865;28;20097;-36
2021/04/03 00:45:57;;;;;;;13.13;3.15;;;5.80;72.70;;;;;;5117492;28;20073;-37
2021/04/03 00:48:22;;;;;;;14.23;2.78;;;5.80;72.20;;;;;;5117387;28;20059;-36
2021/04/03 00:50:50;;;;;;;16.65;3.53;;;5.80;71.60;;;;;;5117346;28;20492;-38
2021/04/03 00:53:20;;;;;;;9.23;2.35;;;5.80;71.90;;;;;;5115879;28;20032;-37
2021/04/03 00:55:46;;;;;;;16.27;3.47;;;5.80;72.30;;;;;;5117471;28;20034;-36
2021/04/03 00:58:12;;;;;;;8.38;2.72;;;5.80;71.90;;;;;;5115712;28;20447;-36
2021/04/03 01:00:39;;;;;;;16.23;3.80;;;5.80;72.20;;;;;;5116648;28;20034;-36
2021/04/03 01:03:05;;;;;;;16.20;3.67;;;5.80;72.20;;;;;;5116748;28;20016;-36
2021/04/03 01:05:32;;;;;;;15.00;4.38;;;5.80;72.70;;;;;;5116762;28;20042;-36
2021/04/03 01:07:58;;;;;;;11.15;3.38;;;5.80;72.50;;;;;;5116640;28;20028;-36
2021/04/03 01:10:28;;;;;;;7.30;2.20;;;5.80;72.40;;;;;;5116868;28;20036;-36
2021/04/03 01:13:38;;;;;;;11.50;2.90;;;5.90;72.10;;;;;;5115309;28;20020;-36
2021/04/03 01:16:26;;;;;;;19.17;5.65;;;6.00;71.60;;;;;;5100269;28;20100;-35
2021/04/03 01:18:52;;;;;;;26.50;4.72;;;6.10;71.10;;;;;;5116701;28;20055;-36
2021/04/03 01:21:31;;;;;;;13.25;3.92;;;6.10;70.70;;;;;;5116446;28;20077;-36
2021/04/03 01:24:32;;;;;;;18.03;3.20;;;6.00;71.00;;;;;;5116500;28;20023;-36
2021/04/03 01:27:16;;;;;;;16.85;3.20;;;5.90;70.90;;;;;;5115332;28;20023;-37
2021/04/03 01:29:51;;;;;;;17.83;3.72;;;5.90;70.60;;;;;;5116913;28;20015;-36
2021/04/03 01:32:30;;;;;;;14.38;3.67;;;6.00;70.20;;;;;;5115318;28;20489;-37
2021/04/03 01:34:59;;;;;;;11.90;2.88;;;6.10;69.60;;;;;;5115348;28;20438;-36
2021/04/03 01:37:25;;;;;;;9.40;2.65;;;5.90;69.50;;;;;;5116470;28;20097;-36
2021/04/03 01:39:54;;;;;;;18.60;2.63;;;5.90;69.90;;;;;;5116303;28;20020;-36
2021/04/03 01:42:22;;;;;;;12.60;2.95;;;5.90;69.70;;;;;;5116166;28;20092;-36
2021/04/03 01:45:00;;;;;;;11.70;3.40;;;6.00;69.80;;;;;;5116207;28;20038;-36
2021/04/03 01:47:29;;;;;;;7.25;2.70;;;5.90;68.90;;;;;;5113772;28;20060;-36
2021/04/03 01:49:57;;;;;;;18.58;3.22;;;5.90;68.80;;;;;;5116237;28;20111;-36
2021/04/03 01:52:28;;;;;;;16.08;2.90;;;5.80;69.00;;;;;;5116176;28;20034;-36
2021/04/03 01:55:00;;;;;;;14.77;3.65;;;5.90;68.70;;;;;;5116207;28;20031;-36
2021/04/03 01:57:30;;;;;;;23.58;3.78;;;5.90;68.80;;;;;;5115935;28;20024;-36
2021/04/03 01:59:57;;;;;;;18.77;4.00;;;5.90;69.00;;;;;;5114674;28;20449;-36
2021/04/03 02:02:23;;;;;;;16.75;3.17;;;5.90;69.00;;;;;;5116058;28;20062;-37
2021/04/03 02:04:49;;;;;;;12.68;3.20;;;6.00;68.80;;;;;;5115796;28;20084;-37
2021/04/03 02:07:21;;;;;;;12.23;2.92;;;6.10;68.40;;;;;;5115699;28;20072;-36
2021/04/03 02:09:50;;;;;;;33.80;4.32;;;6.20;68.60;;;;;;5115985;28;20467;-36
2021/04/03 02:12:16;;;;;;;16.83;3.60;;;6.20;68.30;;;;;;5114427;28;20028;-36
2021/04/03 02:14:44;;;;;;;21.58;3.45;;;6.10;68.60;;;;;;5115494;28;20469;-36
2021/04/03 02:17:10;;;;;;;18.23;4.53;;;6.10;68.60;;;;;;5114123;28;20055;-36
2021/04/03 02:19:38;;;;;;;11.55;2.60;;;6.00;68.10;;;;;;5115472;28;20106;-36
2021/04/03 02:22:05;;;;;;;17.33;3.90;;;6.00;68.80;;;;;;5115404;28;20016;-36
2021/04/03 02:24:31;;;;;;;12.35;3.15;;;5.90;68.50;;;;;;5115715;28;20491;-36
2021/04/03 02:26:57;;;;;;;18.55;4.28;;;6.00;68.40;;;;;;5115803;28;20081;-37
2021/04/03 02:29:23;;;;;;;14.55;4.45;;;6.10;68.60;;;;;;5114409;28;20452;-37
2021/04/03 02:31:50;;;;;;;17.35;4.00;;;6.10;68.80;;;;;;5115954;28;20356;-37
2021/04/03 02:34:16;;;;;;;12.57;3.38;;;6.00;68.50;;;;;;5115152;28;20119;-36
2021/04/03 02:36:41;;;;;;;19.90;2.22;;;6.00;68.60;;;;;;5115343;28;20480;-37
2021/04/03 02:39:07;;;;;;;16.17;2.55;;;6.00;69.00;;;;;;5115115;28;20045;-36
2021/04/03 02:41:39;;;;;;;17.77;3.35;;;6.00;69.10;;;;;;5115365;28;20028;-36
2021/04/03 02:44:31;;;;;;;19.35;3.92;;;6.10;68.60;;;;;;5113847;28;20441;-36
2021/04/03 02:47:10;;;;;;;19.13;2.75;;;6.10;68.20;;;;;;5113126;28;20075;-36
2021/04/03 02:49:41;;;;;;;25.75;2.95;;;6.00;68.10;;;;;;5114815;28;20108;-36
2021/04/03 02:52:09;;;;;;;10.25;2.53;;;5.90;68.90;;;;;;5114859;27;20019;-37
2021/04/03 02:54:35;;;;;;;11.93;2.28;;;5.90;68.90;;;;;;5114743;28;20055;-36
2021/04/03 02:57:02;;;;;;;15.70;2.75;;;6.10;68.10;;;;;;5115057;28;20068;-36
2021/04/03 02:59:32;;;;;;;10.10;2.97;;;6.00;68.60;;;;;;5115026;28;20379;-36
2021/04/03 03:02:00;;;;;;;19.65;4.10;;;6.20;68.10;;;;;;5115431;27;20035;-36
2021/04/03 03:04:27;;;;;;;19.73;3.50;;;6.20;67.80;;;;;;5113280;28;20096;-36
2021/04/03 03:06:54;;;;;;;13.55;2.83;;;5.90;68.70;;;;;;5114648;28;20020;-36
2021/04/03 03:09:20;;;;;;;16.42;2.95;;;5.90;69.20;;;;;;5113340;28;20073;-36
2021/04/03 03:11:54;;;;;;;14.13;2.55;;;6.00;68.90;;;;;;5113434;28;20031;-37
2021/04/03 03:14:22;;;;;;;14.70;2.78;;;5.90;68.90;;;;;;5114756;28;20035;-37
2021/04/03 03:16:51;;;;;;;22.95;4.15;;;6.10;68.70;;;;;;5114466;28;20095;-36
2021/04/03 03:19:18;;;;;;;19.88;4.05;;;6.10;68.40;;;;;;5113444;28;20424;-36
2021/04/03 03:21:43;;;;;;;12.73;2.83;;;6.10;68.80;;;;;;5114405;28;20023;-36
2021/04/03 03:24:10;;;;;;;11.02;3.17;;;6.10;68.50;;;;;;5114377;28;20032;-36
2021/04/03 03:26:38;;;;;;;19.17;3.53;;;6.10;68.30;;;;;;5114207;28;20020;-36
2021/04/03 03:29:06;;;;;;;13.07;3.45;;;6.10;68.50;;;;;;5114324;28;20491;-36
2021/04/03 03:31:32;;;;;;;16.67;2.60;;;5.90;68.90;;;;;;5114230;28;20098;-36
2021/04/03 03:33:58;;;;;;;14.05;2.90;;;6.10;69.10;;;;;;5114102;28;20059;-36
2021/04/03 03:36:27;;;;;;;12.98;4.95;;;6.00;69.40;;;;;;5095913;28;20051;-37
2021/04/03 03:38:53;;;;;;;17.35;3.17;;;6.10;69.20;;;;;;5114103;28;20094;-36
2021/04/03 03:41:19;;;;;;;21.88;3.92;;;6.10;69.00;;;;;;5114042;28;20028;-36
2021/04/03 03:43:46;;;;;;;22.33;4.53;;;6.10;69.40;;;;;;5114206;28;20065;-36
2021/04/03 03:46:12;;;;;;;14.25;2.88;;;6.00;69.40;;;;;;5113992;28;20032;-36
2021/04/03 03:48:38;;;;;;;15.60;3.10;;;5.80;70.40;;;;;;5113608;28;20413;-36
2021/04/03 03:51:04;;;;;;;13.20;2.88;;;6.00;69.80;;;;;;5114230;28;20498;-36
2021/04/03 03:53:29;;;;;;;22.42;3.65;;;5.80;70.10;;;;;;5113756;28;20031;-36
2021/04/03 03:55:56;;;;;;;27.85;5.03;;;5.50;71.50;;;;;;5113998;28;20020;-36
2021/04/03 03:58:21;;;;;;;27.08;4.55;;;5.50;71.70;;;;;;5114141;28;20472;-36
2021/04/03 04:00:47;;;;;;;17.15;2.85;;;5.60;71.20;;;;;;5113824;28;20027;-36
2021/04/03 04:03:13;;;;;;;26.92;4.05;;;5.40;72.00;;;;;;5112555;28;20024;-36
2021/04/03 04:05:39;;;;;;;19.70;3.70;;;5.40;72.10;;;;;;5114436;28;20027;-36
2021/04/03 04:08:05;;;;;;;18.42;3.58;;;5.60;71.70;;;;;;5113937;28;20080;-36
2021/04/03 04:10:31;;;;;;;14.50;3.90;;;5.50;72.00;;;;;;5116879;28;20033;-36
2021/04/03 04:12:57;;;;;;;14.35;3.38;;;5.40;72.40;;;;;;5120550;27;20019;-36
2021/04/03 04:15:22;;;;;;;19.70;4.68;;;5.30;73.00;;;;;;5120409;27;20035;-36
2021/04/03 04:17:48;;;;;;;12.68;3.33;;;5.30;73.00;;;;;;5120380;27;20050;-36
2021/04/03 04:20:14;;;;;;;27.98;5.22;;;5.30;72.80;;;;;;5120608;27;20023;-36
2021/04/03 04:22:40;;;;;;;14.23;2.83;;;5.30;72.80;;;;;;5120414;27;20028;-36
2021/04/03 04:25:06;;;;;;;13.85;4.07;;;5.30;72.80;;;;;;5120509;27;20050;-36
2021/04/03 04:27:32;;;;;;;13.88;2.72;;;5.30;72.90;;;;;;5120194;27;20053;-36
2021/04/03 04:30:08;;;;;;;20.35;4.07;;;5.20;73.00;;;;;;5120371;27;20024;-36
2021/04/03 04:32:38;;;;;;;15.25;3.25;;;5.10;74.00;;;;;;5120650;27;20028;-36
2021/04/03 04:35:06;;;;;;;24.45;4.30;;;5.20;73.90;;;;;;5120507;27;20470;-37
2021/04/03 04:37:32;;;;;;;22.42;3.47;;;5.20;73.60;;;;;;5120195;27;20032;-36
2021/04/03 04:39:58;;;;;;;18.02;4.35;;;5.10;74.00;;;;;;5120531;27;20091;-41
2021/04/03 04:42:23;;;;;;;21.15;3.35;;;5.00;74.50;;;;;;5120391;27;20030;-35
2021/04/03 04:44:49;;;;;;;17.90;3.78;;;5.00;74.50;;;;;;5120441;27;20063;-36
2021/04/03 04:47:15;;;;;;;21.60;5.90;;;5.00;74.60;;;;;;5120246;27;20104;-37
2021/04/03 04:49:41;;;;;;;22.05;6.40;;;5.00;74.80;;;;;;5120178;27;20491;-36
2021/04/03 04:52:06;;;;;;;13.02;2.80;;;5.00;74.90;;;;;;5120434;28;20379;-36
2021/04/03 04:54:32;;;;;;;12.98;4.38;;;5.00;74.40;;;;;;5120109;27;20124;-36
2021/04/03 04:56:58;;;;;;;19.73;4.70;;;5.00;74.70;;;;;;5120272;27;20019;-36
2021/04/03 04:59:24;;;;;;;27.02;6.95;;;4.90;74.90;;;;;;5120547;27;20055;-37
2021/04/03 05:01:50;;;;;;;14.65;3.42;;;4.80;75.30;;;;;;5120275;27;20374;-36
2021/04/03 05:04:16;;;;;;;25.17;3.10;;;4.70;76.20;;;;;;5120150;27;20084;-37
2021/04/03 05:06:42;;;;;;;26.33;6.00;;;4.70;76.30;;;;;;5120546;27;20471;-35
2021/04/03 05:09:07;;;;;;;21.35;3.22;;;4.60;76.50;;;;;;5120187;27;20039;-36
2021/04/03 05:11:33;;;;;;;23.77;4.80;;;4.60;76.80;;;;;;5120245;27;20031;-36
2021/04/03 05:13:59;;;;;;;18.65;5.00;;;4.60;76.60;;;;;;5118853;28;20033;-36
2021/04/03 05:16:24;;;;;;;11.55;3.00;;;4.70;76.60;;;;;;5120211;27;20387;-36
2021/04/03 05:18:50;;;;;;;19.13;3.50;;;4.60;76.80;;;;;;5118746;28;20559;-36
2021/04/03 05:21:16;;;;;;;21.52;3.72;;;4.70;76.70;;;;;;5119762;27;20024;-36
2021/04/03 05:23:41;;;;;;;21.30;3.50;;;4.60;76.80;;;;;;5114473;28;20103;-36
2021/04/03 05:26:07;;;;;;;22.70;5.32;;;4.70;76.80;;;;;;5116989;28;20024;-36
2021/04/03 05:28:32;;;;;;;20.15;5.38;;;4.80;76.10;;;;;;5117051;28;20085;-36
2021/04/03 05:30:58;;;;;;;27.65;3.30;;;4.80;76.30;;;;;;5116670;28;20089;-37
2021/04/03 05:33:24;;;;;;;22.05;4.90;;;4.70;76.50;;;;;;5116543;27;20031;-36
2021/04/03 05:35:49;;;;;;;24.45;4.65;;;4.80;76.30;;;;;;5115530;28;20106;-37
2021/04/03 05:38:15;;;;;;;19.00;3.45;;;4.90;75.80;;;;;;5116685;28;20103;-36
2021/04/03 05:40:40;;;;;;;28.70;7.95;;;4.90;76.30;;;;;;5116346;28;20062;-37
2021/04/03 05:43:07;;;;;;;17.10;3.55;;;5.10;75.50;;;;;;5116317;28;20305;-37
2021/04/03 05:45:37;;;;;;;17.95;3.65;;;5.00;75.40;;;;;;5115039;28;20453;-38
2021/04/03 05:48:04;;;;;;;17.42;4.47;;;5.20;75.00;;;;;;5116420;28;20122;-42
2021/04/03 05:50:30;;;;;;;19.35;4.18;;;5.00;75.80;;;;;;5116183;28;20441;-36
2021/04/03 05:52:58;;;;;;;18.70;3.38;;;5.00;75.70;;;;;;5116267;28;20055;-36
2021/04/03 05:55:25;;;;;;;17.45;5.07;;;5.30;74.90;;;;;;5114828;28;20030;-36
2021/04/03 05:57:50;;;;;;;21.08;3.97;;;5.40;74.60;;;;;;5116230;27;20038;-36
2021/04/03 06:00:17;;;;;;;16.60;4.50;;;5.60;74.10;;;;;;5115931;28;20483;-36
2021/04/03 06:02:42;;;;;;;23.92;6.50;;;5.80;73.10;;;;;;5115914;28;20047;-36
2021/04/03 06:05:09;;;;;;;24.75;5.88;;;5.80;72.90;;;;;;5115884;28;20104;-36
2021/04/03 06:07:35;;;;;;;24.63;5.45;;;5.80;73.20;;;;;;5115669;28;20035;-36
2021/04/03 06:10:03;;;;;;;25.98;5.30;;;5.70;73.80;;;;;;5115949;28;20035;-36
2021/04/03 06:12:40;;;;;;;18.90;3.50;;;5.90;73.10;;;;;;5115969;28;20515;-36
2021/04/03 06:15:06;;;;;;;12.45;3.20;;;6.00;72.70;;;;;;5114307;28;20059;-37
2021/04/03 06:17:32;;;;;;;31.55;8.20;;;6.00;73.20;;;;;;5114192;28;20030;-36
2021/04/03 06:19:58;;;;;;;16.67;3.50;;;6.20;72.70;;;;;;5115858;28;20019;-36
2021/04/03 06:22:24;;;;;;;15.82;3.88;;;6.20;72.20;;;;;;5115548;27;20033;-37
2021/04/03 06:25:04;;;;;;;26.98;4.75;;;6.10;72.80;;;;;;5115496;28;20028;-37
2021/04/03 06:27:30;;;;;;;21.50;3.85;;;6.30;71.70;;;;;;5115395;28;20031;-37
2021/04/03 06:29:57;;;;;;;15.35;3.50;;;6.20;72.10;;;;;;5115240;28;20020;-36
2021/04/03 06:32:32;;;;;;;20.85;6.15;;;6.30;72.10;;;;;;5115135;27;20032;-36
2021/04/03 06:34:58;;;;;;;19.88;4.57;;;6.30;71.90;;;;;;5113524;28;20023;-36
2021/04/03 06:37:27;;;;;;;17.08;3.60;;;6.20;72.60;;;;;;5115148;28;20497;-36
2021/04/03 06:40:10;;;;;;;32.63;5.63;;;6.40;72.20;;;;;;5115018;28;20028;-36
2021/04/03 06:42:47;;;;;;;24.63;5.18;;;6.50;71.50;;;;;;5114930;28;20421;-36
2021/04/03 06:45:33;;;;;;;25.00;4.45;;;6.60;70.80;;;;;;5114242;28;20038;-36
2021/04/03 06:48:07;;;;;;;22.95;4.38;;;6.50;70.70;;;;;;5115077;28;20040;-36
2021/04/03 06:50:48;;;;;;;18.85;4.93;;;6.60;70.70;;;;;;5115359;28;20024;-36
2021/04/03 06:53:18;;;;;;;11.20;4.20;;;6.40;70.00;;;;;;5115276;28;20016;-36
2021/04/03 06:55:48;;;;;;;25.73;5.60;;;6.40;70.00;;;;;;5114945;28;20031;-36
2021/04/03 06:58:14;;;;;;;25.50;6.07;;;6.40;70.20;;;;;;5114685;28;20436;-36
2021/04/03 07:00:40;;;;;;;19.15;4.82;;;6.50;68.50;;;;;;5114639;28;20019;-36
2021/04/03 07:03:10;;;;;;;24.70;4.60;;;6.60;68.40;;;;;;5113748;28;20028;-37
2021/04/03 07:05:37;;;;;;;19.25;5.40;;;6.60;68.10;;;;;;5115167;27;20032;-37
2021/04/03 07:08:05;;;;;;;13.98;3.40;;;6.80;68.00;;;;;;5115083;28;20056;-39
2021/04/03 07:10:32;;;;;;;19.50;5.03;;;6.70;67.90;;;;;;5096488;28;20218;-36
2021/04/03 07:12:59;;;;;;;21.05;4.80;;;6.80;67.80;;;;;;5114547;28;20032;-36
2021/04/03 07:15:26;;;;;;;22.42;4.22;;;6.80;68.40;;;;;;5114223;28;20020;-36
2021/04/03 07:17:52;;;;;;;24.85;5.82;;;6.40;68.90;;;;;;5114310;28;20019;-36
2021/04/03 07:20:22;;;;;;;20.30;4.93;;;6.70;68.40;;;;;;5114042;28;20087;-36
2021/04/03 07:23:00;;;;;;;29.27;6.43;;;6.60;68.40;;;;;;5112394;28;20548;-37
2021/04/03 07:25:28;;;;;;;12.30;5.03;;;6.60;67.30;;;;;;5114126;28;20030;-36
2021/04/03 07:27:54;;;;;;;23.27;8.45;;;6.60;67.20;;;;;;5114341;28;20031;-35
2021/04/03 07:30:35;;;;;;;30.40;8.07;;;6.60;67.60;;;;;;5114689;28;20023;-36
2021/04/03 07:33:13;;;;;;;34.30;7.95;;;6.70;67.30;;;;;;5112766;28;20031;-36
2021/04/03 07:35:43;;;;;;;20.25;7.15;;;6.90;66.60;;;;;;5114102;28;20034;-37
2021/04/03 07:38:11;;;;;;;30.90;7.75;;;6.90;66.70;;;;;;5114317;28;20020;-36
2021/04/03 07:40:40;;;;;;;24.23;9.32;;;7.10;66.40;;;;;;5114236;28;20031;-36
2021/04/03 07:43:36;;;;;;;25.05;8.05;;;7.10;66.50;;;;;;5113901;28;20088;-37
2021/04/03 07:46:04;;;;;;;22.80;6.10;;;7.20;66.20;;;;;;5113498;27;20027;-37
2021/04/03 07:48:43;;;;;;;24.40;5.78;;;7.30;65.70;;;;;;5113693;28;20047;-37
2021/04/03 07:51:11;;;;;;;41.92;8.75;;;7.50;65.70;;;;;;5112075;28;20509;-37
2021/04/03 07:53:45;;;;;;;21.85;5.80;;;7.20;67.30;;;;;;5115877;28;20031;-35
2021/04/03 07:56:38;;;;;;;28.88;6.95;;;7.00;67.30;;;;;;5115239;28;20032;-36
2021/04/03 07:59:04;;;;;;;23.77;7.90;;;7.00;67.80;;;;;;5097157;28;20092;-37
2021/04/03 08:01:30;;;;;;;25.90;8.25;;;7.00;68.00;;;;;;5113435;28;20028;-36
2021/04/03 08:04:00;;;;;;;22.10;6.82;;;7.10;68.30;;;;;;5113934;28;20059;-36
2021/04/03 08:06:36;;;;;;;18.75;7.90;;;7.00;68.60;;;;;;5113765;28;20111;-36
2021/04/03 08:09:04;;;;;;;29.98;9.63;;;7.10;68.50;;;;;;5113805;28;20024;-36
2021/04/03 08:11:30;;;;;;;26.48;7.70;;;7.40;67.60;;;;;;5113523;28;20055;-36
2021/04/03 08:13:57;;;;;;;32.97;8.35;;;7.50;67.20;;;;;;5113744;28;20070;-36
2021/04/03 08:16:27;;;;;;;24.77;7.78;;;7.30;67.90;;;;;;5112857;28;20020;-37
2021/04/03 08:18:55;;;;;;;36.00;7.53;;;7.40;67.30;;;;;;5112486;28;20024;-37
2021/04/03 08:21:22;;;;;;;38.33;11.35;;;7.60;67.30;;;;;;5114559;28;20107;-36
2021/04/03 08:23:50;;;;;;;37.58;8.18;;;7.70;67.10;;;;;;5113587;28;20024;-36
2021/04/03 08:26:21;;;;;;;25.88;8.65;;;7.80;66.80;;;;;;5113832;28;20031;-36
2021/04/03 08:28:47;;;;;;;;;;;7.70;66.90;;;;;;5113894;28;20016;-36
2021/04/03 08:31:17;;;;;;;37.75;10.13;;;7.50;67.80;;;;;;5112947;28;19903;-37
2021/04/03 08:33:48;;;;;;;34.92;10.05;;;7.40;68.50;;;;;;5113253;28;20085;-36
2021/04/03 08:36:16;;;;;;;28.73;10.38;;;7.10;69.20;;;;;;5113471;28;20031;-36
2021/04/03 08:38:45;;;;;;;32.80;8.88;;;7.50;68.60;;;;;;5113193;28;20016;-36
2021/04/03 08:41:22;;;;;;;33.78;8.88;;;7.60;68.40;;;;;;5113300;28;20027;-36
2021/04/03 08:43:49;;;;;;;34.15;9.57;;;7.30;69.30;;;;;;5112607;28;20035;-36
2021/04/03 08:46:15;;;;;;;32.10;11.30;;;7.40;69.30;;;;;;5111584;28;20378;-36
2021/04/03 08:48:44;;;;;;;25.25;9.05;;;7.60;68.30;;;;;;5112526;28;20089;-39
2021/04/03 08:51:11;;;;;;;26.17;7.90;;;7.70;67.80;;;;;;5113605;28;20020;-35
2021/04/03 08:53:42;;;;;;;21.40;6.18;;;7.80;67.40;;;;;;5112236;28;20337;-36
2021/04/03 08:56:08;;;;;;;19.25;6.53;;;7.80;65.80;;;;;;5113165;28;20024;-36
2021/04/03 08:58:36;;;;;;;22.20;5.40;;;7.70;66.30;;;;;;5117091;27;20414;-36
2021/04/03 09:01:03;;;;;;;22.17;5.70;;;8.00;66.00;;;;;;5116379;28;20467;-36
2021/04/03 09:03:29;;;;;;;20.02;5.32;;;8.10;65.60;;;;;;5116915;28;20527;-37
2021/04/03 09:05:54;;;;;;;29.88;7.80;;;8.30;64.70;;;;;;5116462;27;20111;-37
2021/04/03 09:08:22;;;;;;;25.65;7.28;;;7.90;65.80;;;;;;5116614;28;20111;-36
2021/04/03 09:10:56;;;;;;;27.63;8.25;;;7.90;66.10;;;;;;5116641;28;20016;-36
2021/04/03 09:13:22;;;;;;;23.95;7.00;;;8.20;65.80;;;;;;5116675;28;20024;-36
2021/04/03 09:15:48;;;;;;;19.00;6.53;;;8.10;65.60;;;;;;5116486;28;20036;-37
2021/04/03 09:18:15;;;;;;;25.65;6.68;;;8.30;65.50;;;;;;5116272;28;20097;-36
2021/04/03 09:20:50;;;;;;;24.42;6.97;;;8.40;65.00;;;;;;5114966;28;20048;-36
2021/04/03 09:23:22;;;;;;;26.02;9.55;;;8.20;65.70;;;;;;5116568;28;20447;-37
2021/04/03 09:26:06;;;;;;;27.25;6.28;;;8.10;65.90;;;;;;5114846;28;20081;-36
2021/04/03 09:28:36;;;;;;;26.20;8.63;;;8.30;65.10;;;;;;5115827;28;20019;-37
2021/04/03 09:31:02;;;;;;;29.73;10.77;;;8.80;63.70;;;;;;5116255;28;20028;-36
2021/04/03 09:33:28;;;;;;;25.20;8.13;;;8.80;64.10;;;;;;5115896;28;20427;-37
2021/04/03 09:36:10;;;;;;;27.30;8.70;;;8.70;64.00;;;;;;5116010;28;20059;-36
2021/04/03 09:38:37;;;;;;;30.92;10.90;;;8.70;63.90;;;;;;5114151;28;20051;-37
2021/04/03 09:41:26;;;;;;;28.02;9.95;;;9.30;63.20;;;;;;5116228;28;20028;-37
2021/04/03 09:43:53;;;;;;;33.10;8.85;;;9.50;61.90;;;;;;5114633;28;20119;-42
2021/04/03 09:46:19;;;;;;;27.90;8.15;;;9.30;62.50;;;;;;5115377;28;20476;-36
2021/04/03 09:48:45;;;;;;;29.45;10.00;;;9.20;62.50;;;;;;5115555;28;20104;-36
2021/04/03 09:51:11;;;;;;;27.02;10.35;;;9.20;63.70;;;;;;5114214;28;20102;-37
2021/04/03 09:53:37;;;;;;;24.98;8.63;;;9.70;61.20;;;;;;5115424;28;20391;-37
2021/04/03 09:56:05;;;;;;;26.05;8.45;;;10.00;59.40;;;;;;5115320;28;20544;-36
2021/04/03 09:58:30;;;;;;;25.70;9.07;;;10.00;60.00;;;;;;5114406;28;20019;-38
2021/04/03 10:00:56;;;;;;;35.55;11.90;;;11.20;55.30;;;;;;5114067;28;20019;-36
2021/04/03 10:03:22;;;;;;;26.50;10.85;;;10.40;58.20;;;;;;5114340;28;20306;-36
2021/04/03 10:05:48;;;;;;;38.28;11.68;;;10.60;58.10;;;;;;5115997;28;20102;-38
2021/04/03 10:08:14;;;;;;;28.15;9.18;;;11.30;56.10;;;;;;5114889;28;20047;-36
2021/04/03 10:10:40;;;;;;;30.85;9.35;;;11.30;54.90;;;;;;5113873;28;20063;-36
2021/04/03 10:13:07;;;;;;;17.75;7.97;;;11.50;54.40;;;;;;5114847;28;20425;-37
2021/04/03 10:15:33;;;;;;;21.48;7.65;;;11.20;55.40;;;;;;5114845;28;20038;-36
2021/04/03 10:17:59;;;;;;;28.65;10.98;;;9.80;60.00;;;;;;5115241;28;20328;-36
2021/04/03 10:20:25;;;;;;;25.65;8.88;;;9.90;59.90;;;;;;5115205;28;20016;-36
2021/04/03 10:22:51;;;;;;;33.67;9.52;;;11.40;55.90;;;;;;5115203;28;20027;-37
2021/04/03 10:25:16;;;;;;;18.83;6.97;;;11.20;56.10;;;;;;5114023;28;20020;-37
2021/04/03 10:27:42;;;;;;;21.40;7.50;;;11.80;52.00;;;;;;5114851;28;20042;-37
2021/04/03 10:30:09;;;;;;;25.35;9.10;;;11.40;53.40;;;;;;5113154;28;20063;-37
2021/04/03 10:32:34;;;;;;;25.08;8.98;;;12.70;50.60;;;;;;5114309;27;20023;-36
2021/04/03 10:35:00;;;;;;;28.25;9.65;;;12.70;50.70;;;;;;5115016;28;20027;-37
2021/04/03 10:37:26;;;;;;;26.50;10.10;;;13.40;47.70;;;;;;5114874;28;20058;-37
2021/04/03 10:39:52;;;;;;;29.60;10.55;;;12.40;50.20;;;;;;5113669;28;20471;-37
2021/04/03 10:42:18;;;;;;;19.63;8.27;;;11.70;52.60;;;;;;5115103;28;20429;-37
2021/04/03 10:44:43;;;;;;;23.73;7.93;;;11.60;52.70;;;;;;5114398;28;20023;-35
2021/04/03 10:47:09;;;;;;;16.48;7.85;;;12.70;49.80;;;;;;5114564;27;20356;-36
2021/04/03 10:49:35;;;;;;;19.90;6.28;;;12.40;50.00;;;;;;5114481;28;20043;-36
2021/04/03 10:52:00;;;;;;;22.90;7.72;;;13.70;46.50;;;;;;5114539;27;20050;-36
2021/04/03 10:54:26;;;;;;;20.10;7.85;;;14.30;44.70;;;;;;5114344;28;20038;-36
2021/04/03 10:56:53;;;;;;;17.88;7.97;;;14.00;44.70;;;;;;5114414;28;20088;-36
2021/04/03 10:59:19;;;;;;;21.63;7.82;;;14.20;44.50;;;;;;5115594;28;20023;-36
2021/04/03 11:01:45;;;;;;;16.77;7.22;;;13.80;45.90;;;;;;5115014;28;20495;-35
2021/04/03 11:04:11;;;;;;;17.58;6.72;;;13.30;46.40;;;;;;5114548;28;20035;-36
2021/04/03 11:06:37;;;;;;;22.08;7.30;;;13.80;45.00;;;;;;5114133;28;20024;-36
2021/04/03 11:09:04;;;;;;;14.98;6.72;;;14.70;43.20;;;;;;5114237;28;20015;-36
2021/04/03 11:11:30;;;;;;;25.23;9.55;;;15.90;40.50;;;;;;5114254;28;20031;-35
2021/04/03 11:13:56;;;;;;;16.67;7.70;;;16.30;39.00;;;;;;5114091;28;20106;-35
2021/04/03 11:16:21;;;;;;;20.55;8.43;;;15.10;41.60;;;;;;5113559;28;20098;-35
2021/04/03 11:18:47;;;;;;;23.13;7.85;;;15.20;42.20;;;;;;5112942;28;20027;-35
2021/04/03 11:21:13;;;;;;;20.27;5.72;;;14.20;43.60;;;;;;5112785;28;20108;-35
2021/04/03 11:23:39;;;;;;;18.10;6.88;;;13.60;44.40;;;;;;5112680;28;20051;-36
2021/04/03 11:26:05;;;;;;;16.85;6.35;;;12.60;46.90;;;;;;5112479;28;20103;-35
2021/04/03 11:28:30;;;;;;;14.18;4.95;;;12.00;48.70;;;;;;5113732;28;20437;-36
2021/04/03 11:30:56;;;;;;;17.23;5.28;;;13.00;46.20;;;;;;5112349;28;20066;-36
2021/04/03 11:33:22;;;;;;;12.57;5.57;;;13.80;44.40;;;;;;5114175;28;20065;-36
2021/04/03 11:35:50;;;;;;;20.42;6.88;;;14.00;44.10;;;;;;5114100;28;20072;-36
2021/04/03 11:38:16;;;;;;;24.17;6.78;;;13.60;45.30;;;;;;5114116;28;20378;-35
2021/04/03 11:40:41;;;;;;;18.35;6.72;;;13.90;44.40;;;;;;5114273;28;20110;-35
2021/04/03 11:43:07;;;;;;;18.35;7.13;;;14.90;41.70;;;;;;5112251;28;20020;-36
2021/04/03 11:45:33;;;;;;;19.05;7.40;;;14.80;42.10;;;;;;5112709;28;20027;-36
2021/04/03 11:47:58;;;;;;;28.67;8.18;;;14.40;43.00;;;;;;5114193;28;20058;-36
2021/04/03 11:50:27;;;;;;;28.63;7.75;;;13.80;44.10;;;;;;5113660;28;20027;-36
2021/04/03 11:52:56;;;;;;;22.67;6.13;;;13.30;44.20;;;;;;5113768;28;20387;-36
2021/04/03 11:55:22;;;;;;;15.93;7.63;;;12.70;45.90;;;;;;5113344;28;20063;-36
2021/04/03 11:57:48;;;;;;;21.55;7.68;;;13.30;45.00;;;;;;5113929;28;20469;-35
2021/04/03 12:00:15;;;;;;;14.50;6.38;;;14.60;42.30;;;;;;5113405;28;20026;-35
2021/04/03 12:02:41;;;;;;;20.67;6.38;;;14.90;41.80;;;;;;5113705;28;20070;-37
2021/04/03 12:05:07;;;;;;;18.15;5.60;;;15.50;40.70;;;;;;5113320;28;20405;-36
2021/04/03 12:07:37;;;;;;;19.00;6.13;;;15.30;40.50;;;;;;5113206;28;20369;-36
2021/04/03 12:10:08;;;;;;;17.70;7.15;;;13.40;44.50;;;;;;5112877;28;20019;-35
2021/04/03 12:12:39;;;;;;;17.92;7.60;;;13.00;45.90;;;;;;5112967;27;20036;-35
2021/04/03 12:15:08;;;;;;;24.20;6.70;;;12.90;46.40;;;;;;5113682;28;20055;-36
2021/04/03 12:17:35;;;;;;;20.02;6.85;;;12.30;47.60;;;;;;5113121;28;20031;-36
2021/04/03 12:20:02;;;;;;;19.83;6.35;;;12.80;46.80;;;;;;5113531;28;20045;-36
2021/04/03 12:22:28;;;;;;;16.35;5.32;;;13.80;44.20;;;;;;5111850;28;20027;-35
2021/04/03 12:24:53;;;;;;;20.83;5.35;;;14.10;42.20;;;;;;5111932;28;20043;-36
2021/04/03 12:27:19;;;;;;;21.25;5.50;;;14.40;42.20;;;;;;5113058;28;20498;-36
2021/04/03 12:29:45;;;;;;;21.83;5.93;;;14.60;41.60;;;;;;5113042;28;20023;-35
2021/04/03 12:32:11;;;;;;;14.32;5.13;;;14.30;41.70;;;;;;5115183;28;20039;-35
2021/04/03 12:34:37;;;;;;;15.77;6.82;;;13.90;43.00;;;;;;5116735;28;20023;-36
2021/04/03 12:37:03;;;;;;;18.38;5.18;;;13.50;43.20;;;;;;5116765;28;20020;-35
2021/04/03 12:39:29;;;;;;;22.58;5.28;;;12.60;44.10;;;;;;5117765;28;20019;-37
2021/04/03 12:41:54;;;;;;;18.55;5.50;;;12.30;44.60;;;;;;5116781;28;20162;-35
2021/04/03 12:44:20;;;;;;;18.27;4.72;;;11.80;46.50;;;;;;5116811;28;20189;-35
2021/04/03 12:46:46;;;;;;;9.80;3.80;;;12.20;45.60;;;;;;5117257;28;20566;-36
2021/04/03 12:49:12;;;;;;;15.73;5.18;;;12.60;44.70;;;;;;5116664;28;20051;-35
2021/04/03 12:51:37;;;;;;;17.33;5.22;;;13.80;42.30;;;;;;5117536;28;20069;-36